sensor_id;sensor_type;location;lat;lon;timestamp;pressure;altitude;pressure_sealevel;temperature;humidity
44127;BME280;29786;50.798;7.302;2023-04-04T00:04:36;100390;;;1.04;83.51
44127;BME280;29786;50.798;7.302;2023-04-04T00:09:33;100390;;;1.11;84.57
44127;BME280;29786;50.798;7.302;2023-04-04T00:14:29;100390;;;0.83;83.17
44127;BME280;29786;50.798;7.302;2023-04-04T00:19:26;100390;;;0.66;85.48
44127;BME280;29786;50.798;7.302;2023-04-04T00:25:37;100400;;;0.74;89.56
44127;BME280;29786;50.798;7.302;2023-04-04T00:30:33;100390;;;0.85;89.72
44127;BME280;29786;50.798;7.302;2023-04-04T00:35:30;100390;;;0.98;91.46
44127;BME280;29786;50.798;7.302;2023-04-04T00:40:26;100390;;;0.81;91.74
44127;BME280;29786;50.798;7.302;2023-04-04T00:46:37;100390;;;0.32;89.34
44127;BME280;29786;50.798;7.302;2023-04-04T00:51:33;100390;;;0.4;92.71
44127;BME280;29786;50.798;7.302;2023-04-04T00:56:30;100400;;;0.34;91.59
44127;BME280;29786;50.798;7.302;2023-04-04T01:01:26;100390;;;0.21;94.62
44127;BME280;29786;50.798;7.302;2023-04-04T01:07:38;100400;;;0.24;93.91
44127;BME280;29786;50.798;7.302;2023-04-04T01:12:34;100400;;;0.29;93.04
44127;BME280;29786;50.798;7.302;2023-04-04T01:17:30;100400;;;0.03;95.31
44127;BME280;29786;50.798;7.302;2023-04-04T01:22:27;100400;;;-0.03;97.32
44127;BME280;29786;50.798;7.302;2023-04-04T01:28:37;100400;;;-0.22;97.99
44127;BME280;29786;50.798;7.302;2023-04-04T01:33:36;100400;;;-0.19;98.24
44127;BME280;29786;50.798;7.302;2023-04-04T01:38:34;100370;;;-0.4;98
44127;BME280;29786;50.798;7.302;2023-04-04T01:43:29;100390;;;-0.43;98.16
44127;BME280;29786;50.798;7.302;2023-04-04T01:48:23;100390;;;-0.57;100
44127;BME280;29786;50.798;7.302;2023-04-04T01:54:34;100380;;;-0.45;99.05
44127;BME280;29786;50.798;7.302;2023-04-04T01:59:31;100360;;;-0.68;100
44127;BME280;29786;50.798;7.302;2023-04-04T02:04:27;100380;;;-0.66;100
44127;BME280;29786;50.798;7.302;2023-04-04T02:10:38;100380;;;-0.61;100
44127;BME280;29786;50.798;7.302;2023-04-04T02:15:34;100380;;;-0.73;100
44127;BME280;29786;50.798;7.302;2023-04-04T02:20:31;100360;;;-0.97;100
44127;BME280;29786;50.798;7.302;2023-04-04T02:25:28;100390;;;-0.98;100
44127;BME280;29786;50.798;7.302;2023-04-04T02:30:24;100380;;;-0.66;100
44127;BME280;29786;50.798;7.302;2023-04-04T02:36:35;100370;;;-0.52;100
44127;BME280;29786;50.798;7.302;2023-04-04T02:46:28;100380;;;-0.5;100
44127;BME280;29786;50.798;7.302;2023-04-04T02:51:24;100370;;;-0.68;100
44127;BME280;29786;50.798;7.302;2023-04-04T02:57:35;100370;;;-0.84;100
44127;BME280;29786;50.798;7.302;2023-04-04T03:02:31;100360;;;-0.62;100
44127;BME280;29786;50.798;7.302;2023-04-04T03:07:28;100340;;;-0.52;100
44127;BME280;29786;50.798;7.302;2023-04-04T03:18:35;100350;;;-0.24;100
44127;BME280;29786;50.798;7.302;2023-04-04T03:23:32;100340;;;-0.69;100
44127;BME280;29786;50.798;7.302;2023-04-04T03:28:28;100350;;;-0.58;100
44127;BME280;29786;50.798;7.302;2023-04-04T03:33:25;100350;;;-0.92;100
44127;BME280;29786;50.798;7.302;2023-04-04T03:39:35;100350;;;-1.02;100
44127;BME280;29786;50.798;7.302;2023-04-04T03:44:32;100340;;;-0.98;100
44127;BME280;29786;50.798;7.302;2023-04-04T03:49:28;100340;;;-1.02;100
44127;BME280;29786;50.798;7.302;2023-04-04T03:54:26;100350;;;-1.23;100
44127;BME280;29786;50.798;7.302;2023-04-04T04:00:36;100350;;;-1.27;100
44127;BME280;29786;50.798;7.302;2023-04-04T04:05:32;100350;;;-1.6;100
44127;BME280;29786;50.798;7.302;2023-04-04T04:10:29;100350;;;-1.57;100
44127;BME280;29786;50.798;7.302;2023-04-04T04:15:25;100350;;;-1.58;100
44127;BME280;29786;50.798;7.302;2023-04-04T04:21:36;100350;;;-1.64;100
44127;BME280;29786;50.798;7.302;2023-04-04T04:26:32;100340;;;-1.75;100
44127;BME280;29786;50.798;7.302;2023-04-04T04:31:29;100330;;;-1.62;100
44127;BME280;29786;50.798;7.302;2023-04-04T04:36:26;100330;;;-1.78;100
44127;BME280;29786;50.798;7.302;2023-04-04T04:42:39;100330;;;-1.62;100
44127;BME280;29786;50.798;7.302;2023-04-04T04:47:33;100320;;;-1.55;100
44127;BME280;29786;50.798;7.302;2023-04-04T04:52:29;100320;;;-1.43;100
44127;BME280;29786;50.798;7.302;2023-04-04T04:57:26;100330;;;-1.57;100
44127;BME280;29786;50.798;7.302;2023-04-04T05:03:36;100330;;;-1.64;100
44127;BME280;29786;50.798;7.302;2023-04-04T05:08:33;100340;;;-1.56;100
44127;BME280;29786;50.798;7.302;2023-04-04T05:13:30;100340;;;-1.54;100
44127;BME280;29786;50.798;7.302;2023-04-04T05:18:26;100340;;;-1.59;100
44127;BME280;29786;50.798;7.302;2023-04-04T05:24:37;100340;;;-1.5;100
44127;BME280;29786;50.798;7.302;2023-04-04T05:29:33;100340;;;-1.51;100
44127;BME280;29786;50.798;7.302;2023-04-04T05:34:30;100340;;;-1.49;100
44127;BME280;29786;50.798;7.302;2023-04-04T05:39:26;100340;;;-1.37;100
44127;BME280;29786;50.798;7.302;2023-04-04T05:45:37;100340;;;-1.26;100
44127;BME280;29786;50.798;7.302;2023-04-04T05:50:34;100350;;;-1.19;100
44127;BME280;29786;50.798;7.302;2023-04-04T05:55:30;100350;;;-0.77;100
44127;BME280;29786;50.798;7.302;2023-04-04T06:00:27;100350;;;-0.81;100
44127;BME280;29786;50.798;7.302;2023-04-04T06:05:23;100360;;;-0.5;100
44127;BME280;29786;50.798;7.302;2023-04-04T06:11:34;100360;;;-0.33;100
44127;BME280;29786;50.798;7.302;2023-04-04T06:16:30;100350;;;-0.36;100
44127;BME280;29786;50.798;7.302;2023-04-04T06:21:27;100370;;;0;99.03
44127;BME280;29786;50.798;7.302;2023-04-04T06:27:38;100380;;;0.58;96.58
44127;BME280;29786;50.798;7.302;2023-04-04T06:32:34;100370;;;0.97;92.34
44127;BME280;29786;50.798;7.302;2023-04-04T06:37:31;100360;;;0.95;88.85
44127;BME280;29786;50.798;7.302;2023-04-04T06:42:27;100380;;;1;88.53
44127;BME280;29786;50.798;7.302;2023-04-04T06:48:38;100380;;;1.14;86.59
44127;BME280;29786;50.798;7.302;2023-04-04T06:53:34;100380;;;0.98;88.1
44127;BME280;29786;50.798;7.302;2023-04-04T06:58:31;100360;;;0.92;87.45
44127;BME280;29786;50.798;7.302;2023-04-04T07:03:27;100390;;;1.05;88.25
44127;BME280;29786;50.798;7.302;2023-04-04T07:08:24;100400;;;1.16;87.8
44127;BME280;29786;50.798;7.302;2023-04-04T07:14:35;100410;;;1.76;86.3
44127;BME280;29786;50.798;7.302;2023-04-04T07:24:28;100420;;;2.87;76.94
44127;BME280;29786;50.798;7.302;2023-04-04T07:29:24;100410;;;3.41;74.51
44127;BME280;29786;50.798;7.302;2023-04-04T07:35:35;100420;;;3.32;71.49
44127;BME280;29786;50.798;7.302;2023-04-04T07:40:31;100410;;;3.44;69.26
44127;BME280;29786;50.798;7.302;2023-04-04T07:45:28;100410;;;3.38;70.43
44127;BME280;29786;50.798;7.302;2023-04-04T07:56:35;100410;;;4.09;66.07
44127;BME280;29786;50.798;7.302;2023-04-04T08:01:32;100400;;;4.06;65.95
44127;BME280;29786;50.798;7.302;2023-04-04T08:06:28;100400;;;4.34;61.55
44127;BME280;29786;50.798;7.302;2023-04-04T08:11:25;100390;;;4.61;60.06
44127;BME280;29786;50.798;7.302;2023-04-04T08:17:35;100390;;;5.09;60.38
44127;BME280;29786;50.798;7.302;2023-04-04T08:22:32;100380;;;5.12;59.38
44127;BME280;29786;50.798;7.302;2023-04-04T08:27:28;100390;;;5.14;57
44127;BME280;29786;50.798;7.302;2023-04-04T08:32:25;100390;;;5.3;54.79
44127;BME280;29786;50.798;7.302;2023-04-04T08:38:36;100390;;;5.42;52.85
44127;BME280;29786;50.798;7.302;2023-04-04T08:43:33;100390;;;5.5;53.1
44127;BME280;29786;50.798;7.302;2023-04-04T08:48:29;100380;;;5.67;53.39
44127;BME280;29786;50.798;7.302;2023-04-04T08:53:25;100370;;;5.79;52.43
44127;BME280;29786;50.798;7.302;2023-04-04T08:59:36;100370;;;5.89;53.08
44127;BME280;29786;50.798;7.302;2023-04-04T09:04:32;100370;;;5.88;52.61
44127;BME280;29786;50.798;7.302;2023-04-04T09:09:30;100370;;;6.08;53.24
44127;BME280;29786;50.798;7.302;2023-04-04T09:14:26;100360;;;6.38;51.48
44127;BME280;29786;50.798;7.302;2023-04-04T09:20:37;100360;;;6.59;53.16
44127;BME280;29786;50.798;7.302;2023-04-04T09:25:33;100360;;;6.55;51.16
44127;BME280;29786;50.798;7.302;2023-04-04T09:30:30;100360;;;6.73;51.16
44127;BME280;29786;50.798;7.302;2023-04-04T09:35:26;100360;;;6.79;50.56
44127;BME280;29786;50.798;7.302;2023-04-04T09:41:37;100360;;;6.51;51.35
44127;BME280;29786;50.798;7.302;2023-04-04T09:46:33;100360;;;6.57;51.46
44127;BME280;29786;50.798;7.302;2023-04-04T09:51:33;100360;;;7.06;49.68
44127;BME280;29786;50.798;7.302;2023-04-04T09:56:26;100360;;;7.28;49.11
44127;BME280;29786;50.798;7.302;2023-04-04T10:02:38;100360;;;6.92;47.51
44127;BME280;29786;50.798;7.302;2023-04-04T10:07:33;100360;;;7.48;48.68
44127;BME280;29786;50.798;7.302;2023-04-04T10:12:30;100360;;;7.89;47.42
44127;BME280;29786;50.798;7.302;2023-04-04T10:17:30;100350;;;7.52;46.55
44127;BME280;29786;50.798;7.302;2023-04-04T10:23:37;100350;;;7.65;47.76
44127;BME280;29786;50.798;7.302;2023-04-04T10:28:34;100340;;;8.08;46.23
44127;BME280;29786;50.798;7.302;2023-04-04T10:33:36;100340;;;7.32;47.45
44127;BME280;29786;50.798;7.302;2023-04-04T10:38:27;100340;;;8.21;45.57
44127;BME280;29786;50.798;7.302;2023-04-04T10:44:38;100320;;;8.18;46.21
44127;BME280;29786;50.798;7.302;2023-04-04T10:49:34;100320;;;8.27;43.98
44127;BME280;29786;50.798;7.302;2023-04-04T10:54:30;100300;;;8.53;44.4
44127;BME280;29786;50.798;7.302;2023-04-04T10:59:27;100310;;;8.68;44.12
44127;BME280;29786;50.798;7.302;2023-04-04T11:05:37;100300;;;8.1;46
44127;BME280;29786;50.798;7.302;2023-04-04T11:10:35;100300;;;8.72;42.17
44127;BME280;29786;50.798;7.302;2023-04-04T11:16:03;100270;;;8.76;42.88
44127;BME280;29786;50.798;7.302;2023-04-04T11:20:28;100290;;;8.68;43.55
44127;BME280;29786;50.798;7.302;2023-04-04T11:25:27;100290;;;9.03;43.17
44127;BME280;29786;50.798;7.302;2023-04-04T11:31:38;100270;;;9.1;43.62
44127;BME280;29786;50.798;7.302;2023-04-04T11:42:00;100260;;;9.87;41.5
44127;BME280;29786;50.798;7.302;2023-04-04T11:46:24;100260;;;10.21;41.82
44127;BME280;29786;50.798;7.302;2023-04-04T11:52:35;100240;;;10.68;37.59
44127;BME280;29786;50.798;7.302;2023-04-04T12:02:28;100230;;;14.39;33.9
44127;BME280;29786;50.798;7.302;2023-04-04T12:07:24;100230;;;14.47;32.55
44127;BME280;29786;50.798;7.302;2023-04-04T12:13:40;100220;;;14.69;32.29
44127;BME280;29786;50.798;7.302;2023-04-04T12:18:31;100210;;;15.8;32.4
44127;BME280;29786;50.798;7.302;2023-04-04T12:23:32;100200;;;16.73;31.83
44127;BME280;29786;50.798;7.302;2023-04-04T12:34:40;100190;;;16.54;29.87
44127;BME280;29786;50.798;7.302;2023-04-04T12:39:32;100190;;;18.06;29.39
44127;BME280;29786;50.798;7.302;2023-04-04T12:44:30;100170;;;17.78;28.4
44127;BME280;29786;50.798;7.302;2023-04-04T12:49:41;100180;;;18.32;29.33
44127;BME280;29786;50.798;7.302;2023-04-04T12:55:35;100170;;;18.02;29.17
44127;BME280;29786;50.798;7.302;2023-04-04T13:00:32;100160;;;18.75;27.16
44127;BME280;29786;50.798;7.302;2023-04-04T13:05:28;100150;;;19.04;25.58
44127;BME280;29786;50.798;7.302;2023-04-04T13:10:25;100140;;;19.06;26.18
44127;BME280;29786;50.798;7.302;2023-04-04T13:16:36;100130;;;18.33;26.82
44127;BME280;29786;50.798;7.302;2023-04-04T13:21:33;100120;;;19.81;25.57
44127;BME280;29786;50.798;7.302;2023-04-04T13:26:29;100120;;;19.42;25.7
44127;BME280;29786;50.798;7.302;2023-04-04T13:31:25;100120;;;19.41;25.27
44127;BME280;29786;50.798;7.302;2023-04-04T13:37:36;100100;;;21.56;25.05
44127;BME280;29786;50.798;7.302;2023-04-04T13:42:32;100090;;;21.3;24.03
44127;BME280;29786;50.798;7.302;2023-04-04T13:47:29;100100;;;21.34;24.26
44127;BME280;29786;50.798;7.302;2023-04-04T13:52:25;100090;;;21.65;23.26
44127;BME280;29786;50.798;7.302;2023-04-04T13:58:36;100070;;;20.84;25.32
44127;BME280;29786;50.798;7.302;2023-04-04T14:03:33;100060;;;22.33;23.41
44127;BME280;29786;50.798;7.302;2023-04-04T14:08:29;100060;;;21.49;24.22
44127;BME280;29786;50.798;7.302;2023-04-04T14:13:26;100060;;;22.38;23.47
44127;BME280;29786;50.798;7.302;2023-04-04T14:19:37;100050;;;22.42;21.82
44127;BME280;29786;50.798;7.302;2023-04-04T14:24:33;100050;;;22.75;23.66
44127;BME280;29786;50.798;7.302;2023-04-04T14:29:29;100030;;;25.42;19.03
44127;BME280;29786;50.798;7.302;2023-04-04T14:34:26;100030;;;21.19;25.61
44127;BME280;29786;50.798;7.302;2023-04-04T14:38:08;100020;;;21.58;25.1
44127;BME280;29786;50.798;7.302;2023-04-04T14:40:37;100020;;;21.95;22.97
44127;BME280;29786;50.798;7.302;2023-04-04T14:45:33;100010;;;21.78;22.7
44127;BME280;29786;50.798;7.302;2023-04-04T14:50:30;100010;;;22.09;21.37
44127;BME280;29786;50.798;7.302;2023-04-04T14:55:26;100000;;;21.42;22.22
44127;BME280;29786;50.798;7.302;2023-04-04T15:01:37;100000;;;20.46;23.17
44127;BME280;29786;50.798;7.302;2023-04-04T15:06:33;100000;;;22.66;23.66
44127;BME280;29786;50.798;7.302;2023-04-04T15:11:30;99990;;;23.35;21.5
44127;BME280;29786;50.798;7.302;2023-04-04T15:16:27;99980;;;24.49;19.6
44127;BME280;29786;50.798;7.302;2023-04-04T15:21:23;99980;;;25.38;19.62
44127;BME280;29786;50.798;7.302;2023-04-04T15:27:34;99980;;;24.54;20.05
44127;BME280;29786;50.798;7.302;2023-04-04T15:32:30;99980;;;24.1;19.78
44127;BME280;29786;50.798;7.302;2023-04-04T15:37:27;99980;;;24.39;20.72
44127;BME280;29786;50.798;7.302;2023-04-04T15:43:37;99970;;;23.34;18.63
44127;BME280;29786;50.798;7.302;2023-04-04T15:48:34;99960;;;23.36;20.13
44127;BME280;29786;50.798;7.302;2023-04-04T15:53:31;99930;;;24.46;18.66
44127;BME280;29786;50.798;7.302;2023-04-04T15:58:27;99940;;;23.49;19.35
44127;BME280;29786;50.798;7.302;2023-04-04T16:04:38;99950;;;20.88;20.68
44127;BME280;29786;50.798;7.302;2023-04-04T16:09:34;99950;;;21.84;20.47
44127;BME280;29786;50.798;7.302;2023-04-04T16:14:31;99930;;;20.96;21.62
44127;BME280;29786;50.798;7.302;2023-04-04T16:19:27;99950;;;20.82;22.49
44127;BME280;29786;50.798;7.302;2023-04-04T16:24:24;99940;;;21.15;23.14
44127;BME280;29786;50.798;7.302;2023-04-04T16:30:35;99940;;;20.97;21.22
44127;BME280;29786;50.798;7.302;2023-04-04T16:35:31;99940;;;21.29;23.49
44127;BME280;29786;50.798;7.302;2023-04-04T16:40:28;99940;;;21.9;21.52
44127;BME280;29786;50.798;7.302;2023-04-04T16:45:24;99930;;;20.87;22.53
44127;BME280;29786;50.798;7.302;2023-04-04T16:51:35;99930;;;21.04;24
44127;BME280;29786;50.798;7.302;2023-04-04T16:56:31;99930;;;22.08;22.2
44127;BME280;29786;50.798;7.302;2023-04-04T17:01:28;99920;;;20.36;22.74
44127;BME280;29786;50.798;7.302;2023-04-04T17:12:35;99920;;;19.61;24.23
44127;BME280;29786;50.798;7.302;2023-04-04T17:17:32;99920;;;21.11;25.39
44127;BME280;29786;50.798;7.302;2023-04-04T17:22:28;99910;;;20.16;24.54
44127;BME280;29786;50.798;7.302;2023-04-04T17:27:25;99910;;;18.35;26.2
44127;BME280;29786;50.798;7.302;2023-04-04T17:33:35;99920;;;16.4;27.58
44127;BME280;29786;50.798;7.302;2023-04-04T17:38:32;99930;;;12.55;32
44127;BME280;29786;50.798;7.302;2023-04-04T17:43:29;99940;;;10.57;34.49
44127;BME280;29786;50.798;7.302;2023-04-04T17:48:25;99950;;;9.62;41.56
44127;BME280;29786;50.798;7.302;2023-04-04T17:54:36;99940;;;9.14;42.09
44127;BME280;29786;50.798;7.302;2023-04-04T17:59:32;99940;;;8.67;43.41
44127;BME280;29786;50.798;7.302;2023-04-04T18:04:29;99940;;;8.47;43.51
44127;BME280;29786;50.798;7.302;2023-04-04T18:09:25;99940;;;8.1;44.01
44127;BME280;29786;50.798;7.302;2023-04-04T18:15:36;99950;;;7.76;48.26
44127;BME280;29786;50.798;7.302;2023-04-04T18:20:34;99950;;;7.65;49
44127;BME280;29786;50.798;7.302;2023-04-04T18:25:29;99940;;;7.54;49.01
44127;BME280;29786;50.798;7.302;2023-04-04T18:36:36;99950;;;7.36;50.66
44127;BME280;29786;50.798;7.302;2023-04-04T18:41:33;99950;;;6.79;49.87
44127;BME280;29786;50.798;7.302;2023-04-04T18:46:29;99950;;;6.74;50.21
44127;BME280;29786;50.798;7.302;2023-04-04T18:51:26;99960;;;6.5;50.14
44127;BME280;29786;50.798;7.302;2023-04-04T18:56:30;99950;;;6.27;51.29
44127;BME280;29786;50.798;7.302;2023-04-04T19:01:27;99970;;;6.5;53.51
44127;BME280;29786;50.798;7.302;2023-04-04T19:07:38;99970;;;6.35;52.98
44127;BME280;29786;50.798;7.302;2023-04-04T19:12:34;99970;;;5.98;53.53
44127;BME280;29786;50.798;7.302;2023-04-04T19:17:31;99960;;;6.02;53.91
44127;BME280;29786;50.798;7.302;2023-04-04T19:22:27;99980;;;6.23;52.86
44127;BME280;29786;50.798;7.302;2023-04-04T19:27:24;99980;;;6.27;52.85
44127;BME280;29786;50.798;7.302;2023-04-04T19:33:34;99980;;;6.33;51.63
44127;BME280;29786;50.798;7.302;2023-04-04T19:38:32;99970;;;6.05;52.82
44127;BME280;29786;50.798;7.302;2023-04-04T19:43:28;99980;;;5.81;51.62
44127;BME280;29786;50.798;7.302;2023-04-04T19:49:29;99980;;;5.71;52.91
44127;BME280;29786;50.798;7.302;2023-04-04T19:54:35;99980;;;5.46;52.85
44127;BME280;29786;50.798;7.302;2023-04-04T19:59:41;99980;;;5.33;54.17
44127;BME280;29786;50.798;7.302;2023-04-04T20:04:28;99980;;;5.29;52.9
44127;BME280;29786;50.798;7.302;2023-04-04T20:09:31;99980;;;5.2;53.26
44127;BME280;29786;50.798;7.302;2023-04-04T20:21:36;99980;;;5.1;53.73
44127;BME280;29786;50.798;7.302;2023-04-04T20:25:44;99990;;;4.92;54.18
44127;BME280;29786;50.798;7.302;2023-04-04T20:30:25;99990;;;4.87;54.6
44127;BME280;29786;50.798;7.302;2023-04-04T20:36:36;99990;;;4.96;54.92
44127;BME280;29786;50.798;7.302;2023-04-04T20:41:32;99990;;;4.84;55.1
44127;BME280;29786;50.798;7.302;2023-04-04T20:46:28;99990;;;4.81;54.68
44127;BME280;29786;50.798;7.302;2023-04-04T20:51:26;99990;;;4.71;55.51
44127;BME280;29786;50.798;7.302;2023-04-04T20:57:36;99990;;;4.63;55.63
44127;BME280;29786;50.798;7.302;2023-04-04T21:02:32;99990;;;4.63;56.41
44127;BME280;29786;50.798;7.302;2023-04-04T21:07:37;99990;;;4.58;56.58
44127;BME280;29786;50.798;7.302;2023-04-04T21:12:25;99990;;;4.51;57.12
44127;BME280;29786;50.798;7.302;2023-04-04T21:18:36;100000;;;4.32;57.31
44127;BME280;29786;50.798;7.302;2023-04-04T21:23:33;99990;;;4.36;57.53
44127;BME280;29786;50.798;7.302;2023-04-04T21:28:37;99990;;;4.19;57.57
44127;BME280;29786;50.798;7.302;2023-04-04T21:33:25;99980;;;4.32;58.56
44127;BME280;29786;50.798;7.302;2023-04-04T21:39:36;99980;;;4.23;58.67
44127;BME280;29786;50.798;7.302;2023-04-04T21:44:33;99980;;;4.19;60.13
44127;BME280;29786;50.798;7.302;2023-04-04T21:49:29;99980;;;4.13;58.54
44127;BME280;29786;50.798;7.302;2023-04-04T21:54:26;99980;;;4;59.98
44127;BME280;29786;50.798;7.302;2023-04-04T22:00:36;99970;;;3.9;61.97
44127;BME280;29786;50.798;7.302;2023-04-04T22:05:33;99960;;;3.83;61.83
44127;BME280;29786;50.798;7.302;2023-04-04T22:10:29;99960;;;3.97;65.03
44127;BME280;29786;50.798;7.302;2023-04-04T22:15:26;99960;;;4.07;64.91
44127;BME280;29786;50.798;7.302;2023-04-04T22:21:37;99970;;;4.08;63.82
44127;BME280;29786;50.798;7.302;2023-04-04T22:26:33;99960;;;4.03;62.04
44127;BME280;29786;50.798;7.302;2023-04-04T22:31:30;99960;;;3.91;63.14
44127;BME280;29786;50.798;7.302;2023-04-04T22:36:26;99970;;;3.67;65.17
44127;BME280;29786;50.798;7.302;2023-04-04T22:42:37;99970;;;3.63;67.91
44127;BME280;29786;50.798;7.302;2023-04-04T22:47:33;99970;;;3.71;66.51
44127;BME280;29786;50.798;7.302;2023-04-04T22:52:30;99960;;;3.85;65.08
44127;BME280;29786;50.798;7.302;2023-04-04T22:57:27;99950;;;3.8;65.31
44127;BME280;29786;50.798;7.302;2023-04-04T23:03:37;99960;;;3.48;68.49
44127;BME280;29786;50.798;7.302;2023-04-04T23:08:34;99950;;;3.46;66.64
44127;BME280;29786;50.798;7.302;2023-04-04T23:13:30;99950;;;3.48;67.37
44127;BME280;29786;50.798;7.302;2023-04-04T23:18:27;99960;;;3.46;66.4
44127;BME280;29786;50.798;7.302;2023-04-04T23:23:23;99950;;;3.47;66.08
44127;BME280;29786;50.798;7.302;2023-04-04T23:29:34;99940;;;3.52;68.51
44127;BME280;29786;50.798;7.302;2023-04-04T23:34:30;99920;;;3.44;67.47
44127;BME280;29786;50.798;7.302;2023-04-04T23:39:27;99940;;;3.34;68.01
44127;BME280;29786;50.798;7.302;2023-04-04T23:44:24;99940;;;3.15;70.26
44127;BME280;29786;50.798;7.302;2023-04-04T23:50:34;99940;;;2.96;70.34
44127;BME280;29786;50.798;7.302;2023-04-04T23:55:31;99910;;;3.05;71.87
